Nearby METAR Reports

 

KELM - Elmira, New York, USA
Distance from station: W 13mi, 20km
Updated: Mon, 24-Apr-2017 8:53am EDT
Clear
Clear
 Wind from calm
Wind: Calm
Temperature: 46°F , 8°C
Dew Point: 39°F , 4°C
Humidity: 76%
Barometer: 30.14 inHg , 1020.7 hPa
Clouds: Clear
Visibility: 10 miles , 16 km
2017/04/24 12:53 KELM 241253Z 00000KT 10SM CLR 08/04 A3014 RMK AO2 SLP210 T00830039
KITH - Ithaca/Tompkins, New York, USA
Distance from station: NNE 24mi, 39km
Updated: Mon, 24-Apr-2017 8:56am EDT
Clear
Clear
 Wind from NW
Wind: NW 8 mph , 13 km/h
Temperature: 48°F , 9°C
Wind Chill: 44°F , 7°C
Dew Point: 39°F , 4°C
Humidity: 71%
Barometer: 30.17 inHg , 1021.7 hPa
Clouds: Clear
Visibility: 10 miles , 16 km
2017/04/24 12:56 KITH 241256Z 31007KT 10SM CLR 09/04 A3017 RMK AO2 SLP217 T00890039
KBGM - Binghamton, New York, USA
Distance from station: E 35mi, 56km
Updated: Mon, 24-Apr-2017 8:53am EDT
Clear
Clear
 Wind from SE
Wind: SE 6 mph , 9 km/h
Temperature: 50°F , 10°C
Wind Chill: 48°F , 9°C
Dew Point: 36°F , 2°C
Humidity: 58%
Barometer: 30.13 inHg , 1020.3 hPa
Clouds: Clear
Visibility: 10 miles , 16 km
2017/04/24 12:53 KBGM 241253Z 13005KT 10SM CLR 10/02 A3013 RMK AO2 SLP205 T01000022
 
KPEO - Penn Yan, New York, USA
Distance from station: NNW 40mi, 64km
Updated: Mon, 24-Apr-2017 8:53am EDT
Clear
Clear
 Wind from calm
Wind: Calm
Temperature: 46°F , 8°C
Dew Point: 37°F , 3°C
Humidity: 71%
Barometer: 30.17 inHg , 1021.7 hPa
Clouds: Clear
Visibility: 10 miles , 16 km
2017/04/24 12:53 KPEO 241253Z AUTO 00000KT 10SM CLR 08/03 A3017 RMK AO2 SLP219 T00830028
KDSV - Dansville, New York, USA
Distance from station: WNW 61mi, 99km
Updated: Mon, 24-Apr-2017 8:54am EDT
Clear
Clear
 Wind from calm
Wind: Calm
Temperature: 45°F , 7°C
Dew Point: 36°F , 2°C
Humidity: 71%
Barometer: 30.18 inHg , 1022 hPa
Clouds: Clear
Visibility: 10 miles , 16 km
2017/04/24 12:54 KDSV 241254Z AUTO 00000KT 10SM CLR 07/02 A3018 RMK AO2 SLP232 T00720022
KIPT - Williamsport, Pennsylvania, USA
Distance from station: SSW 64mi, 102km
Updated: Mon, 24-Apr-2017 8:54am EDT
Clear
Clear
 Wind from calm
Wind: Calm
Temperature: 46°F , 8°C
Dew Point: 39°F , 4°C
Humidity: 76%
Barometer: 30.14 inHg , 1020.7 hPa
Clouds: Clear
Visibility: 10 miles , 16 km
2017/04/24 12:54 KIPT 241254Z 00000KT 10SM CLR 08/04 A3014 RMK AO2 SLP208 T00830044
 
KELZ - Wellsville, New York, USA
Distance from station: W 68mi, 110km
Updated: Mon, 24-Apr-2017 8:56am EDT
Clear
Clear
 Wind from calm
Wind: Calm
Temperature: 54°F , 12°C
Dew Point: 36°F , 2°C
Humidity: 51%
Barometer: 30.13 inHg , 1020.3 hPa
Clouds: Clear
Visibility: 10 miles , 16 km
2017/04/24 12:56 KELZ 241256Z AUTO 00000KT 10SM CLR 12/02 A3013 RMK AO2 SLP204 T01170022
KSYR - Syracuse, New York, USA
Distance from station: NNE 72mi, 117km
Updated: Mon, 24-Apr-2017 8:54am EDT
Mostly cloudy
Mostly cloudy
 Wind from calm
Wind: Calm
Temperature: 48°F , 9°C
Dew Point: 41°F , 5°C
Humidity: 76%
Barometer: 30.17 inHg , 1021.7 hPa
Clouds: Mostly cloudy
Visibility: 10 miles , 16 km
Cloud details: Few Clouds 20000 ft
Mostly cloudy 25000 ft
2017/04/24 12:54 KSYR 241254Z 00000KT 10SM FEW200 BKN250 09/05 A3017 RMK AO2 SLP214 T00890050
KAVP - Avoca/Wilkes B., Pennsylvania, USA
Distance from station: SE 74mi, 120km
Updated: Mon, 24-Apr-2017 8:54am EDT
Clear
Clear
 Wind from NE
Wind: NE 6 mph , 9 km/h
Temperature: 52°F , 11°C
Dew Point: 39°F , 4°C
Humidity: 62%
Barometer: 30.14 inHg , 1020.7 hPa
Clouds: Clear
Visibility: 10 miles , 16 km
2017/04/24 12:54 KAVP 241254Z 04005KT 10SM CLR 11/04 A3014 RMK AO2 SLP205 T01060039